Time;durP1;ratioP1;P1;durP2;ratioP2;P2;SDS_P1;SDS_P2;PMS_P1;PMS_P2;Temp;Humidity;BMP_temperature;BMP_pressure;BME280_temperature;BME280_humidity;BME280_pressure;Samples;Min_cycle;Max_cycle;Signal;HPM_P1;HPM_P2
2021/09/17 00:00:05;;;;;;;;;;;;;;;;;;2081205;28;19932;-46
2021/09/17 00:01:05;;;;;;;;;;;;;;;;;;2086731;28;19928;-45
2021/09/17 00:02:06;;;;;;;;;;;;;;;;;;2089484;28;20056;-46
2021/09/17 00:03:07;;;;;;;;;;;;;;;;;;2089428;28;19921;-46
2021/09/17 00:04:08;;;;;;;;;;;;;;;;;;2087581;28;19936;-46
2021/09/17 00:05:09;;;;;;;;;;;;;;;;;;2081289;28;19921;-48
2021/09/17 00:06:10;;;;;;;;;;;;;;;;;;2081102;28;19925;-46
2021/09/17 00:07:10;;;;;;;;;;;;;;;;;;2086790;28;19978;-46
2021/09/17 00:08:11;;;;;;;;;;;;;;;;;;2081136;28;19921;-48
2021/09/17 00:09:14;;;;;;;;;;;;;;;;;;2080988;28;19921;-46
2021/09/17 00:10:16;;;;;;;;;;;;;;;;;;2087385;28;20343;-46
2021/09/17 00:11:17;;;;;;;;;;;;;;;;;;2089351;28;20028;-46
2021/09/17 00:12:18;;;;;;;;;;;;;;;;;;2088752;28;20369;-49
2021/09/17 00:13:19;;;;;;;;;;;;;;;;;;2085833;28;19927;-48
2021/09/17 00:14:20;;;;;;;;;;;;;;;;;;2081111;28;19929;-47
2021/09/17 00:15:20;;;;;;;;;;;;;;;;;;2082500;28;20377;-46
2021/09/17 00:16:21;;;;;;;;;;;;;;;;;;2087639;28;19947;-46
2021/09/17 00:17:22;;;;;;;;;;;;;;;;;;2089476;28;19920;-47
2021/09/17 00:18:23;;;;;;;;;;;;;;;;;;2088481;28;19921;-47
2021/09/17 00:19:23;;;;;;;;;;;;;;;;;;2087932;28;19931;-45
2021/09/17 00:20:24;;;;;;;;;;;;;;;;;;2089394;28;19932;-46
2021/09/17 00:21:25;;;;;;;;;;;;;;;;;;2088463;28;19943;-47
2021/09/17 00:22:26;;;;;;;;;;;;;;;;;;2087985;28;20363;-49
2021/09/17 00:23:27;;;;;;;;;;;;;;;;;;2089378;28;19924;-46
2021/09/17 00:24:27;;;;;;;;;;;;;;;;;;2088342;28;19927;-48
2021/09/17 00:25:28;;;;;;;;;;;;;;;;;;2084788;28;19951;-46
2021/09/17 00:26:29;;;;;;;;;;;;;;;;;;2082553;28;20424;-47
2021/09/17 00:27:30;;;;;;;;;;;;;;;;;;2086023;28;19974;-47
2021/09/17 00:28:31;;;;;;;;;;;;;;;;;;2084536;28;19925;-49
2021/09/17 00:29:31;;;;;;;;;;;;;;;;;;2082460;28;19967;-47
2021/09/17 00:30:32;;;;;;;;;;;;;;;;;;2086037;28;19921;-46
2021/09/17 00:31:33;;;;;;;;;;;;;;;;;;2089942;28;20278;-47
2021/09/17 00:32:34;;;;;;;;;;;;;;;;;;2090687;28;19924;-46
2021/09/17 00:33:35;;;;;;;;;;;;;;;;;;2088719;28;19928;-48
2021/09/17 00:34:36;;;;;;;;;;;;;;;;;;2090472;28;20274;-46
2021/09/17 00:35:37;;;;;;;;;;;;;;;;;;2090780;28;19924;-46
2021/09/17 00:36:38;;;;;;;;;;;;;;;;;;2088416;28;19921;-46
2021/09/17 00:37:38;;;;;;;;;;;;;;;;;;2090530;28;19920;-46
2021/09/17 00:38:39;;;;;;;;;;;;;;;;;;2090337;28;19974;-48
2021/09/17 00:39:40;;;;;;;;;;;;;;;;;;2088171;28;19944;-47
2021/09/17 00:40:42;;;;;;;;;;;;;;;;;;2090831;28;20355;-47
2021/09/17 00:41:43;;;;;;;;;;;;;;;;;;2090635;28;20008;-47
2021/09/17 00:42:44;;;;;;;;;;;;;;;;;;2087736;28;19924;-46
2021/09/17 00:43:44;;;;;;;;;;;;;;;;;;2090591;28;20281;-48
2021/09/17 00:44:45;;;;;;;;;;;;;;;;;;2090748;28;19920;-46
2021/09/17 00:45:47;;;;;;;;;;;;;;;;;;2088565;28;20278;-46
2021/09/17 00:46:48;;;;;;;;;;;;;;;;;;2090501;28;20461;-46
2021/09/17 00:47:49;;;;;;;;;;;;;;;;;;2090264;28;19921;-48
2021/09/17 00:48:49;;;;;;;;;;;;;;;;;;2087762;28;19920;-46
2021/09/17 00:49:50;;;;;;;;;;;;;;;;;;2082390;28;19929;-46
2021/09/17 00:50:51;;;;;;;;;;;;;;;;;;2081598;28;19967;-47
2021/09/17 00:51:52;;;;;;;;;;;;;;;;;;2087094;28;19936;-47
2021/09/17 00:52:52;;;;;;;;;;;;;;;;;;2082303;28;19928;-46
2021/09/17 00:53:53;;;;;;;;;;;;;;;;;;2083662;28;19920;-47
2021/09/17 00:54:54;;;;;;;;;;;;;;;;;;2088690;28;19971;-47
2021/09/17 00:55:55;;;;;;;;;;;;;;;;;;2090648;28;19928;-47
2021/09/17 00:56:58;;;;;;;;;;;;;;;;;;2090042;28;20281;-47
2021/09/17 00:57:59;;;;;;;;;;;;;;;;;;2085274;28;19925;-46
2021/09/17 00:59:00;;;;;;;;;;;;;;;;;;2082380;28;19921;-46
2021/09/17 01:00:00;;;;;;;;;;;;;;;;;;2084933;28;19924;-46
2021/09/17 01:01:01;;;;;;;;;;;;;;;;;;2088920;28;20329;-47
2021/09/17 01:02:03;;;;;;;;;;;;;;;;;;2090569;28;19950;-47
2021/09/17 01:03:04;;;;;;;;;;;;;;;;;;2089511;28;19996;-48
2021/09/17 01:04:05;;;;;;;;;;;;;;;;;;2082560;28;19925;-46
2021/09/17 01:05:05;;;;;;;;;;;;;;;;;;2082412;28;19921;-46
2021/09/17 01:06:06;;;;;;;;;;;;;;;;;;2087805;28;19951;-46
2021/09/17 01:07:07;;;;;;;;;;;;;;;;;;2082154;28;19925;-47
2021/09/17 01:08:08;;;;;;;;;;;;;;;;;;2082316;28;19928;-47
2021/09/17 01:09:09;;;;;;;;;;;;;;;;;;2087980;28;19967;-46
2021/09/17 01:10:09;;;;;;;;;;;;;;;;;;2082266;28;19921;-46
2021/09/17 01:11:10;;;;;;;;;;;;;;;;;;2082081;28;19924;-46
2021/09/17 01:12:11;;;;;;;;;;;;;;;;;;2088046;28;19927;-47
2021/09/17 01:13:12;;;;;;;;;;;;;;;;;;2090452;28;19927;-46
2021/09/17 01:14:13;;;;;;;;;;;;;;;;;;2090031;28;20388;-46
2021/09/17 01:15:13;;;;;;;;;;;;;;;;;;2088350;28;19928;-46
2021/09/17 01:16:14;;;;;;;;;;;;;;;;;;2090373;28;19928;-47
2021/09/17 01:17:17;;;;;;;;;;;;;;;;;;2089992;28;19928;-47
2021/09/17 01:18:18;;;;;;;;;;;;;;;;;;2088370;28;20367;-46
2021/09/17 01:19:18;;;;;;;;;;;;;;;;;;2090487;28;19921;-46
2021/09/17 01:20:19;;;;;;;;;;;;;;;;;;2089783;28;20309;-46
2021/09/17 01:21:20;;;;;;;;;;;;;;;;;;2088809;28;20309;-46
2021/09/17 01:22:21;;;;;;;;;;;;;;;;;;2090389;28;19925;-46
2021/09/17 01:23:22;;;;;;;;;;;;;;;;;;2089737;28;19928;-46
2021/09/17 01:24:22;;;;;;;;;;;;;;;;;;2087887;28;19942;-49
2021/09/17 01:25:23;;;;;;;;;;;;;;;;;;2090382;28;19947;-47
2021/09/17 01:26:24;;;;;;;;;;;;;;;;;;2089670;28;19925;-47
2021/09/17 01:27:25;;;;;;;;;;;;;;;;;;2085348;28;19967;-46
2021/09/17 01:28:25;;;;;;;;;;;;;;;;;;2082022;28;19921;-47
2021/09/17 01:29:26;;;;;;;;;;;;;;;;;;2084943;28;20380;-48
2021/09/17 01:30:27;;;;;;;;;;;;;;;;;;2085025;28;19921;-46
2021/09/17 01:31:28;;;;;;;;;;;;;;;;;;2082093;28;19975;-46
2021/09/17 01:32:29;;;;;;;;;;;;;;;;;;2085393;28;19928;-46
2021/09/17 01:33:30;;;;;;;;;;;;;;;;;;2088765;28;19971;-46
2021/09/17 01:34:31;;;;;;;;;;;;;;;;;;2090423;28;19932;-46
2021/09/17 01:35:33;;;;;;;;;;;;;;;;;;2088786;28;20285;-46
2021/09/17 01:36:33;;;;;;;;;;;;;;;;;;2088745;28;20016;-46
2021/09/17 01:37:34;;;;;;;;;;;;;;;;;;2090011;28;20396;-46
2021/09/17 01:38:35;;;;;;;;;;;;;;;;;;2089580;28;19920;-56
2021/09/17 01:39:36;;;;;;;;;;;;;;;;;;2083038;28;19920;-56
2021/09/17 01:40:37;;;;;;;;;;;;;;;;;;2082156;28;20171;-56
2021/09/17 01:41:37;;;;;;;;;;;;;;;;;;2087185;28;19921;-56
2021/09/17 01:42:38;;;;;;;;;;;;;;;;;;2082422;28;19925;-56
2021/09/17 01:43:39;;;;;;;;;;;;;;;;;;2082168;28;19948;-56
2021/09/17 01:44:40;;;;;;;;;;;;;;;;;;2087619;28;20424;-56
2021/09/17 01:45:41;;;;;;;;;;;;;;;;;;2081988;28;19921;-56
2021/09/17 01:46:42;;;;;;;;;;;;;;;;;;2081909;28;19943;-56
2021/09/17 01:47:42;;;;;;;;;;;;;;;;;;2087760;28;19935;-56
2021/09/17 01:48:43;;;;;;;;;;;;;;;;;;2082028;28;19921;-56
2021/09/17 01:49:44;;;;;;;;;;;;;;;;;;2081974;28;20386;-56
2021/09/17 01:50:45;;;;;;;;;;;;;;;;;;2086693;28;20382;-56
2021/09/17 01:51:45;;;;;;;;;;;;;;;;;;2090157;28;19927;-56
2021/09/17 01:52:46;;;;;;;;;;;;;;;;;;2089895;28;20385;-56
2021/09/17 01:53:47;;;;;;;;;;;;;;;;;;2088274;28;20314;-56
2021/09/17 01:54:48;;;;;;;;;;;;;;;;;;2090319;28;19921;-56
2021/09/17 01:55:49;;;;;;;;;;;;;;;;;;2089726;28;20328;-56
2021/09/17 01:56:50;;;;;;;;;;;;;;;;;;2087101;28;20247;-56
2021/09/17 01:57:50;;;;;;;;;;;;;;;;;;2081929;28;19925;-56
2021/09/17 01:58:51;;;;;;;;;;;;;;;;;;2082779;28;19928;-56
2021/09/17 01:59:52;;;;;;;;;;;;;;;;;;2088296;28;19921;-56
2021/09/17 02:00:53;;;;;;;;;;;;;;;;;;2090133;28;19924;-56
2021/09/17 02:01:54;;;;;;;;;;;;;;;;;;2089674;28;19921;-57
2021/09/17 02:02:55;;;;;;;;;;;;;;;;;;2088310;28;19920;-57
2021/09/17 02:03:55;;;;;;;;;;;;;;;;;;2090318;28;20015;-56
2021/09/17 02:04:56;;;;;;;;;;;;;;;;;;2089179;28;19936;-56
2021/09/17 02:05:57;;;;;;;;;;;;;;;;;;2085374;28;19967;-56
2021/09/17 02:06:58;;;;;;;;;;;;;;;;;;2081745;28;19928;-56
2021/09/17 02:07:59;;;;;;;;;;;;;;;;;;2084477;28;20282;-56
2021/09/17 02:09:01;;;;;;;;;;;;;;;;;;2088506;28;20424;-55
2021/09/17 02:10:02;;;;;;;;;;;;;;;;;;2090201;28;19999;-56
2021/09/17 02:11:03;;;;;;;;;;;;;;;;;;2089124;28;19924;-56
2021/09/17 02:12:04;;;;;;;;;;;;;;;;;;2084122;28;19927;-56
2021/09/17 02:13:05;;;;;;;;;;;;;;;;;;2081816;28;19925;-56
2021/09/17 02:14:05;;;;;;;;;;;;;;;;;;2085431;28;19944;-56
2021/09/17 02:15:06;;;;;;;;;;;;;;;;;;2089105;28;19928;-56
2021/09/17 02:16:07;;;;;;;;;;;;;;;;;;2089943;28;19921;-56
2021/09/17 02:17:08;;;;;;;;;;;;;;;;;;2088958;28;19927;-56
2021/09/17 02:18:08;;;;;;;;;;;;;;;;;;2082877;28;19971;-56
2021/09/17 02:19:09;;;;;;;;;;;;;;;;;;2081900;28;19928;-56
2021/09/17 02:20:10;;;;;;;;;;;;;;;;;;2085576;28;19927;-56
2021/09/17 02:21:18;;;;;;;;;;;;;;;;;;2089789;28;19925;-56
2021/09/17 02:22:18;;;;;;;;;;;;;;;;;;2090099;28;20011;-56
2021/09/17 02:23:19;;;;;;;;;;;;;;;;;;2088135;28;20321;-56
2021/09/17 02:24:20;;;;;;;;;;;;;;;;;;2081788;28;19921;-56
2021/09/17 02:25:21;;;;;;;;;;;;;;;;;;2081685;28;19924;-56
2021/09/17 02:26:21;;;;;;;;;;;;;;;;;;2087294;28;19921;-56
2021/09/17 02:27:22;;;;;;;;;;;;;;;;;;2081644;28;19924;-56
2021/09/17 02:28:23;;;;;;;;;;;;;;;;;;2081817;28;19927;-56
2021/09/17 02:29:24;;;;;;;;;;;;;;;;;;2087326;28;19924;-56
2021/09/17 02:30:25;;;;;;;;;;;;;;;;;;2081668;28;19925;-56
2021/09/17 02:31:25;;;;;;;;;;;;;;;;;;2084415;28;19921;-56
2021/09/17 02:32:26;;;;;;;;;;;;;;;;;;2086896;28;20337;-56
2021/09/17 02:33:27;;;;;;;;;;;;;;;;;;2081667;28;20349;-56
2021/09/17 02:34:28;;;;;;;;;;;;;;;;;;2082739;28;19921;-56
2021/09/17 02:35:29;;;;;;;;;;;;;;;;;;2088019;28;19994;-56
2021/09/17 02:36:29;;;;;;;;;;;;;;;;;;2089878;28;19921;-56
2021/09/17 02:37:30;;;;;;;;;;;;;;;;;;2089362;28;19943;-56
2021/09/17 02:38:31;;;;;;;;;;;;;;;;;;2088045;28;19920;-56
2021/09/17 02:39:32;;;;;;;;;;;;;;;;;;2090048;28;19921;-56
2021/09/17 02:40:33;;;;;;;;;;;;;;;;;;2089032;28;19932;-56
2021/09/17 02:41:33;;;;;;;;;;;;;;;;;;2088343;28;19920;-56
2021/09/17 02:42:34;;;;;;;;;;;;;;;;;;2089809;28;19920;-56
2021/09/17 02:43:36;;;;;;;;;;;;;;;;;;2088970;28;19928;-57
2021/09/17 02:44:36;;;;;;;;;;;;;;;;;;2084568;28;19928;-56
2021/09/17 02:45:37;;;;;;;;;;;;;;;;;;2081513;28;19983;-56
2021/09/17 02:46:38;;;;;;;;;;;;;;;;;;2084756;28;19932;-56
2021/09/17 02:47:39;;;;;;;;;;;;;;;;;;2088309;28;19920;-56
2021/09/17 02:48:41;;;;;;;;;;;;;;;;;;2089802;28;19921;-56
2021/09/17 02:49:42;;;;;;;;;;;;;;;;;;2088580;28;20019;-56
2021/09/17 02:50:43;;;;;;;;;;;;;;;;;;2084678;28;20294;-56
2021/09/17 02:51:44;;;;;;;;;;;;;;;;;;2081587;28;20317;-56
2021/09/17 02:52:45;;;;;;;;;;;;;;;;;;2085928;28;19920;-56
2021/09/17 02:53:46;;;;;;;;;;;;;;;;;;2082703;28;19925;-56
2021/09/17 02:54:46;;;;;;;;;;;;;;;;;;2081562;28;20294;-56
2021/09/17 02:55:47;;;;;;;;;;;;;;;;;;2086436;28;19920;-56
2021/09/17 02:56:48;;;;;;;;;;;;;;;;;;2081997;28;19921;-56
2021/09/17 02:57:49;;;;;;;;;;;;;;;;;;2081640;28;20363;-56
2021/09/17 02:58:50;;;;;;;;;;;;;;;;;;2087147;28;19921;-56
2021/09/17 02:59:50;;;;;;;;;;;;;;;;;;2081718;28;20302;-56
2021/09/17 03:00:51;;;;;;;;;;;;;;;;;;2081526;28;19954;-56
2021/09/17 03:01:52;;;;;;;;;;;;;;;;;;2087181;28;19928;-56
2021/09/17 03:02:54;;;;;;;;;;;;;;;;;;2081599;28;19921;-56
2021/09/17 03:03:54;;;;;;;;;;;;;;;;;;2081648;28;19924;-56
2021/09/17 03:04:55;;;;;;;;;;;;;;;;;;2087411;28;20353;-56
2021/09/17 03:05:56;;;;;;;;;;;;;;;;;;2089667;28;20313;-56
2021/09/17 03:06:57;;;;;;;;;;;;;;;;;;2089199;28;19921;-56
2021/09/17 03:07:58;;;;;;;;;;;;;;;;;;2087715;28;19921;-56
2021/09/17 03:08:59;;;;;;;;;;;;;;;;;;2089871;28;20424;-56
2021/09/17 03:09:59;;;;;;;;;;;;;;;;;;2089170;28;19921;-56
2021/09/17 03:11:00;;;;;;;;;;;;;;;;;;2087732;28;19947;-56
2021/09/17 03:12:01;;;;;;;;;;;;;;;;;;2089664;28;19932;-56
2021/09/17 03:13:02;;;;;;;;;;;;;;;;;;2089238;28;19921;-56
2021/09/17 03:14:03;;;;;;;;;;;;;;;;;;2086136;28;19927;-56
2021/09/17 03:15:04;;;;;;;;;;;;;;;;;;2081450;28;19921;-56
2021/09/17 03:16:05;;;;;;;;;;;;;;;;;;2082977;28;19925;-56
2021/09/17 03:17:06;;;;;;;;;;;;;;;;;;2087878;28;20007;-56
2021/09/17 03:18:07;;;;;;;;;;;;;;;;;;2089755;28;19956;-56
2021/09/17 03:19:08;;;;;;;;;;;;;;;;;;2088873;28;20294;-56
2021/09/17 03:20:08;;;;;;;;;;;;;;;;;;2088201;28;19925;-56
2021/09/17 03:21:09;;;;;;;;;;;;;;;;;;2089580;28;20044;-56
2021/09/17 03:22:10;;;;;;;;;;;;;;;;;;2088735;28;19946;-56
2021/09/17 03:23:11;;;;;;;;;;;;;;;;;;2088203;28;20049;-56
2021/09/17 03:24:12;;;;;;;;;;;;;;;;;;2089652;28;19921;-56
2021/09/17 03:25:13;;;;;;;;;;;;;;;;;;2088705;28;19972;-56
2021/09/17 03:26:14;;;;;;;;;;;;;;;;;;2083673;28;19921;-56
2021/09/17 03:27:14;;;;;;;;;;;;;;;;;;2081340;28;20385;-56
2021/09/17 03:28:15;;;;;;;;;;;;;;;;;;2088062;28;19921;-56
2021/09/17 03:29:16;;;;;;;;;;;;;;;;;;2088592;28;19920;-56
2021/09/17 03:30:17;;;;;;;;;;;;;;;;;;2089549;28;20305;-56
2021/09/17 03:31:17;;;;;;;;;;;;;;;;;;2088468;28;19924;-56
2021/09/17 03:32:18;;;;;;;;;;;;;;;;;;2082696;28;19925;-56
2021/09/17 03:33:19;;;;;;;;;;;;;;;;;;2081442;28;19924;-56
2021/09/17 03:34:20;;;;;;;;;;;;;;;;;;2085152;28;19939;-56
2021/09/17 03:35:21;;;;;;;;;;;;;;;;;;2089513;28;19956;-56
2021/09/17 03:36:22;;;;;;;;;;;;;;;;;;2089633;28;19921;-56
2021/09/17 03:37:22;;;;;;;;;;;;;;;;;;2087285;28;19927;-56
2021/09/17 03:38:23;;;;;;;;;;;;;;;;;;2089438;28;19920;-55
2021/09/17 03:39:24;;;;;;;;;;;;;;;;;;2089501;28;19970;-56
2021/09/17 03:40:25;;;;;;;;;;;;;;;;;;2087285;28;20015;-56
2021/09/17 03:41:25;;;;;;;;;;;;;;;;;;2089641;28;19981;-56
2021/09/17 03:42:28;;;;;;;;;;;;;;;;;;2089712;28;20200;-56
2021/09/17 03:43:29;;;;;;;;;;;;;;;;;;2087125;28;19929;-56
2021/09/17 03:44:30;;;;;;;;;;;;;;;;;;2089575;28;19924;-56
2021/09/17 03:45:32;;;;;;;;;;;;;;;;;;2089030;28;19931;-56
2021/09/17 03:46:33;;;;;;;;;;;;;;;;;;2086686;28;20031;-56
2021/09/17 03:47:33;;;;;;;;;;;;;;;;;;2081166;28;19921;-55
2021/09/17 03:48:35;;;;;;;;;;;;;;;;;;2081908;28;19929;-56
2021/09/17 03:49:35;;;;;;;;;;;;;;;;;;2086044;28;20499;-56
2021/09/17 03:50:36;;;;;;;;;;;;;;;;;;2079779;28;19925;-55
2021/09/17 03:51:37;;;;;;;;;;;;;;;;;;2082570;28;20072;-56
2021/09/17 03:52:38;;;;;;;;;;;;;;;;;;2087652;28;20330;-55
2021/09/17 03:53:39;;;;;;;;;;;;;;;;;;2089491;28;19927;-55
2021/09/17 03:54:40;;;;;;;;;;;;;;;;;;2089116;28;20019;-56
2021/09/17 03:55:40;;;;;;;;;;;;;;;;;;2085041;28;19921;-56
2021/09/17 03:56:41;;;;;;;;;;;;;;;;;;2081216;28;20336;-56
2021/09/17 03:57:42;;;;;;;;;;;;;;;;;;2083297;28;19974;-55
2021/09/17 03:58:43;;;;;;;;;;;;;;;;;;2087949;28;19920;-55
2021/09/17 03:59:44;;;;;;;;;;;;;;;;;;2089477;28;20297;-56
2021/09/17 04:00:44;;;;;;;;;;;;;;;;;;2090023;28;19939;-56
2021/09/17 04:01:47;;;;;;;;;;;;;;;;;;2089592;28;19920;-56
2021/09/17 04:02:48;;;;;;;;;;;;;;;;;;2091049;28;20457;-55
2021/09/17 04:03:49;;;;;;;;;;;;;;;;;;2089893;28;19932;-55
2021/09/17 04:04:50;;;;;;;;;;;;;;;;;;2089409;28;19920;-55
2021/09/17 04:05:51;;;;;;;;;;;;;;;;;;2090940;28;19925;-58
2021/09/17 04:06:51;;;;;;;;;;;;;;;;;;2089504;28;19929;-55
2021/09/17 04:07:52;;;;;;;;;;;;;;;;;;2089978;28;19921;-56
2021/09/17 04:08:53;;;;;;;;;;;;;;;;;;2090791;28;19920;-56
2021/09/17 04:09:54;;;;;;;;;;;;;;;;;;2088958;28;19971;-56
2021/09/17 04:10:55;;;;;;;;;;;;;;;;;;2090491;28;19920;-55
2021/09/17 04:11:55;;;;;;;;;;;;;;;;;;2090845;28;19921;-56
2021/09/17 04:12:56;;;;;;;;;;;;;;;;;;2088628;28;19927;-55
2021/09/17 04:13:57;;;;;;;;;;;;;;;;;;2090665;28;19921;-55
2021/09/17 04:14:58;;;;;;;;;;;;;;;;;;2090883;28;19927;-55
2021/09/17 04:15:59;;;;;;;;;;;;;;;;;;2088353;28;19927;-55
2021/09/17 04:17:00;;;;;;;;;;;;;;;;;;2082684;28;19921;-55
2021/09/17 04:18:00;;;;;;;;;;;;;;;;;;2082696;28;20281;-55
2021/09/17 04:19:01;;;;;;;;;;;;;;;;;;2087847;28;20398;-55
2021/09/17 04:20:02;;;;;;;;;;;;;;;;;;2090820;28;19920;-55
2021/09/17 04:21:03;;;;;;;;;;;;;;;;;;2090828;28;20324;-55
2021/09/17 04:22:03;;;;;;;;;;;;;;;;;;2088357;28;19921;-55
2021/09/17 04:23:04;;;;;;;;;;;;;;;;;;2090778;28;19925;-55
2021/09/17 04:24:05;;;;;;;;;;;;;;;;;;2090039;28;19924;-55
2021/09/17 04:25:06;;;;;;;;;;;;;;;;;;2088207;28;20118;-55
2021/09/17 04:26:07;;;;;;;;;;;;;;;;;;2082370;28;19921;-55
2021/09/17 04:27:08;;;;;;;;;;;;;;;;;;2082939;28;19974;-55
2021/09/17 04:28:08;;;;;;;;;;;;;;;;;;2088794;28;19921;-56
2021/09/17 04:29:09;;;;;;;;;;;;;;;;;;2090727;28;19921;-56
2021/09/17 04:30:10;;;;;;;;;;;;;;;;;;2090168;28;20459;-56
2021/09/17 04:31:11;;;;;;;;;;;;;;;;;;2086874;28;20374;-55
2021/09/17 04:32:12;;;;;;;;;;;;;;;;;;2082486;28;19921;-55
2021/09/17 04:33:14;;;;;;;;;;;;;;;;;;2083914;28;19921;-55
2021/09/17 04:34:15;;;;;;;;;;;;;;;;;;2088221;28;19920;-55
2021/09/17 04:35:16;;;;;;;;;;;;;;;;;;2090541;28;19920;-56
2021/09/17 04:36:17;;;;;;;;;;;;;;;;;;2089881;28;19920;-55
2021/09/17 04:37:18;;;;;;;;;;;;;;;;;;2085848;28;19974;-55
2021/09/17 04:38:19;;;;;;;;;;;;;;;;;;2082397;28;19928;-55
2021/09/17 04:39:19;;;;;;;;;;;;;;;;;;2085154;28;19924;-55
2021/09/17 04:40:20;;;;;;;;;;;;;;;;;;2089144;28;19921;-56
2021/09/17 04:41:21;;;;;;;;;;;;;;;;;;2090500;28;20333;-55
2021/09/17 04:42:22;;;;;;;;;;;;;;;;;;2089755;28;20401;-55
2021/09/17 04:43:24;;;;;;;;;;;;;;;;;;2089149;28;20400;-55
2021/09/17 04:44:24;;;;;;;;;;;;;;;;;;2090656;28;19924;-55
2021/09/17 04:45:25;;;;;;;;;;;;;;;;;;2089200;28;20337;-55
2021/09/17 04:46:26;;;;;;;;;;;;;;;;;;2089641;28;20337;-55
2021/09/17 04:47:27;;;;;;;;;;;;;;;;;;2090654;28;19932;-55
2021/09/17 04:48:28;;;;;;;;;;;;;;;;;;2088622;28;19920;-55
2021/09/17 04:49:28;;;;;;;;;;;;;;;;;;2090268;28;20366;-55
2021/09/17 04:50:29;;;;;;;;;;;;;;;;;;2088322;28;20002;-55
2021/09/17 04:51:30;;;;;;;;;;;;;;;;;;2087413;28;20359;-56
2021/09/17 04:52:31;;;;;;;;;;;;;;;;;;2082775;28;19931;-56
2021/09/17 04:53:32;;;;;;;;;;;;;;;;;;2082396;28;19921;-55
2021/09/17 04:54:33;;;;;;;;;;;;;;;;;;2088007;28;19920;-56
2021/09/17 04:55:34;;;;;;;;;;;;;;;;;;2082169;28;20222;-54
2021/09/17 04:56:36;;;;;;;;;;;;;;;;;;2082326;28;19920;-56
2021/09/17 04:57:37;;;;;;;;;;;;;;;;;;2087804;28;20011;-55
2021/09/17 04:58:38;;;;;;;;;;;;;;;;;;2082369;28;19928;-55
2021/09/17 04:59:38;;;;;;;;;;;;;;;;;;2082443;28;20298;-56
2021/09/17 05:00:39;;;;;;;;;;;;;;;;;;2086875;28;20317;-56
2021/09/17 05:01:40;;;;;;;;;;;;;;;;;;2082294;28;19921;-56
2021/09/17 05:02:41;;;;;;;;;;;;;;;;;;2082486;28;19925;-57
2021/09/17 05:03:43;;;;;;;;;;;;;;;;;;2088610;28;19921;-55
2021/09/17 05:04:44;;;;;;;;;;;;;;;;;;2090409;28;20015;-56
2021/09/17 05:05:45;;;;;;;;;;;;;;;;;;2089916;28;20362;-56
2021/09/17 05:06:46;;;;;;;;;;;;;;;;;;2087017;28;19921;-56
2021/09/17 05:07:46;;;;;;;;;;;;;;;;;;2082345;28;20126;-56
2021/09/17 05:08:47;;;;;;;;;;;;;;;;;;2083572;28;19921;-56
2021/09/17 05:09:48;;;;;;;;;;;;;;;;;;2086200;28;19921;-55
2021/09/17 05:10:49;;;;;;;;;;;;;;;;;;2082148;28;19925;-56
2021/09/17 05:11:50;;;;;;;;;;;;;;;;;;2082795;28;19944;-55
2021/09/17 05:12:51;;;;;;;;;;;;;;;;;;2086088;28;20184;-55
2021/09/17 05:13:51;;;;;;;;;;;;;;;;;;2082150;28;20298;-59
2021/09/17 05:14:52;;;;;;;;;;;;;;;;;;2084587;28;19920;-55
2021/09/17 05:15:53;;;;;;;;;;;;;;;;;;2085193;28;19928;-57
2021/09/17 05:16:54;;;;;;;;;;;;;;;;;;2082138;28;19928;-56
2021/09/17 05:17:54;;;;;;;;;;;;;;;;;;2085052;28;20355;-56
2021/09/17 05:18:56;;;;;;;;;;;;;;;;;;2088975;28;20299;-56
2021/09/17 05:19:56;;;;;;;;;;;;;;;;;;2090231;28;19921;-56
2021/09/17 05:20:57;;;;;;;;;;;;;;;;;;2089300;28;19927;-55
2021/09/17 05:21:58;;;;;;;;;;;;;;;;;;2084112;28;19928;-57
2021/09/17 05:22:59;;;;;;;;;;;;;;;;;;2082146;28;19981;-56
2021/09/17 05:23:59;;;;;;;;;;;;;;;;;;2085786;28;19924;-56
2021/09/17 05:25:00;;;;;;;;;;;;;;;;;;2089539;28;19960;-56
2021/09/17 05:26:02;;;;;;;;;;;;;;;;;;2090271;28;19924;-56
2021/09/17 05:27:03;;;;;;;;;;;;;;;;;;2088307;28;19974;-57
2021/09/17 05:28:04;;;;;;;;;;;;;;;;;;2089371;28;20329;-56
2021/09/17 05:29:05;;;;;;;;;;;;;;;;;;2090316;28;19925;-57
2021/09/17 05:30:05;;;;;;;;;;;;;;;;;;2089110;28;19928;-56
2021/09/17 05:31:06;;;;;;;;;;;;;;;;;;2082511;28;19924;-56
2021/09/17 05:32:07;;;;;;;;;;;;;;;;;;2082071;28;20271;-57
2021/09/17 05:33:08;;;;;;;;;;;;;;;;;;2086553;28;20396;-56
2021/09/17 05:34:09;;;;;;;;;;;;;;;;;;2090366;28;19970;-56
2021/09/17 05:35:09;;;;;;;;;;;;;;;;;;2090285;28;20366;-56
2021/09/17 05:36:10;;;;;;;;;;;;;;;;;;2088184;28;20404;-56
2021/09/17 05:37:11;;;;;;;;;;;;;;;;;;2082172;28;19925;-56
2021/09/17 05:38:12;;;;;;;;;;;;;;;;;;2082149;28;20370;-56
2021/09/17 05:39:13;;;;;;;;;;;;;;;;;;2087961;28;19975;-56
2021/09/17 05:40:14;;;;;;;;;;;;;;;;;;2090269;28;19921;-56
2021/09/17 05:41:15;;;;;;;;;;;;;;;;;;2089865;28;19920;-56
2021/09/17 05:42:15;;;;;;;;;;;;;;;;;;2087397;28;20357;-56
2021/09/17 05:43:16;;;;;;;;;;;;;;;;;;2081995;28;19921;-56
2021/09/17 05:44:17;;;;;;;;;;;;;;;;;;2082848;28;19929;-57
2021/09/17 05:45:18;;;;;;;;;;;;;;;;;;2088201;28;20003;-57
2021/09/17 05:46:19;;;;;;;;;;;;;;;;;;2090341;28;19920;-56
2021/09/17 05:47:20;;;;;;;;;;;;;;;;;;2089651;28;20012;-56
2021/09/17 05:48:23;;;;;;;;;;;;;;;;;;2086441;28;20286;-58
2021/09/17 05:49:24;;;;;;;;;;;;;;;;;;2082047;28;19999;-56
2021/09/17 05:50:25;;;;;;;;;;;;;;;;;;2082492;28;20341;-56
2021/09/17 05:51:25;;;;;;;;;;;;;;;;;;2088592;28;20086;-56
2021/09/17 05:52:38;;;;;;;;;;;;;;;;;;2090223;28;19921;-56
2021/09/17 05:53:39;;;;;;;;;;;;;;;;;;2088920;28;19921;-56
2021/09/17 05:54:40;;;;;;;;;;;;;;;;;;2089241;28;20389;-57
2021/09/17 05:55:41;;;;;;;;;;;;;;;;;;2090191;28;19925;-57
2021/09/17 05:56:42;;;;;;;;;;;;;;;;;;2088288;28;19928;-56
2021/09/17 05:57:42;;;;;;;;;;;;;;;;;;2089885;28;19921;-56
2021/09/17 05:58:43;;;;;;;;;;;;;;;;;;2090175;28;20349;-57
2021/09/17 05:59:44;;;;;;;;;;;;;;;;;;2088955;28;19932;-56
2021/09/17 06:00:45;;;;;;;;;;;;;;;;;;2082410;28;19921;-57
2021/09/17 06:01:46;;;;;;;;;;;;;;;;;;2081970;28;19971;-55
2021/09/17 06:02:47;;;;;;;;;;;;;;;;;;2086373;28;19975;-56
2021/09/17 06:03:48;;;;;;;;;;;;;;;;;;2081902;28;19928;-57
2021/09/17 06:04:49;;;;;;;;;;;;;;;;;;2081984;28;19921;-56
2021/09/17 06:05:49;;;;;;;;;;;;;;;;;;2086940;28;19932;-57
2021/09/17 06:06:50;;;;;;;;;;;;;;;;;;2090240;28;19928;-56
2021/09/17 06:07:51;;;;;;;;;;;;;;;;;;2089998;28;19971;-56
2021/09/17 06:08:52;;;;;;;;;;;;;;;;;;2087639;28;20392;-56
2021/09/17 06:09:53;;;;;;;;;;;;;;;;;;2081781;28;19921;-56
2021/09/17 06:10:54;;;;;;;;;;;;;;;;;;2081621;28;19921;-55
2021/09/17 06:11:55;;;;;;;;;;;;;;;;;;2088014;28;19969;-56
2021/09/17 06:12:55;;;;;;;;;;;;;;;;;;2090143;28;19959;-57
2021/09/17 06:13:56;;;;;;;;;;;;;;;;;;2089771;28;20288;-56
2021/09/17 06:14:57;;;;;;;;;;;;;;;;;;2088165;28;19924;-56
2021/09/17 06:15:58;;;;;;;;;;;;;;;;;;2090089;28;20267;-56
2021/09/17 06:17:13;;;;;;;;;;;;;;;;;;2084414;28;20114;-57
2021/09/17 06:18:14;;;;;;;;;;;;;;;;;;2088499;28;19924;-56
2021/09/17 06:19:15;;;;;;;;;;;;;;;;;;2089966;28;19921;-55
2021/09/17 06:20:16;;;;;;;;;;;;;;;;;;2089318;28;19936;-56
2021/09/17 06:21:17;;;;;;;;;;;;;;;;;;2088476;28;19970;-56
2021/09/17 06:22:17;;;;;;;;;;;;;;;;;;2090112;28;19927;-56
2021/09/17 06:23:18;;;;;;;;;;;;;;;;;;2088416;28;19947;-56
2021/09/17 06:24:20;;;;;;;;;;;;;;;;;;2083608;28;19928;-57
2021/09/17 06:25:21;;;;;;;;;;;;;;;;;;2081762;28;20011;-56
2021/09/17 06:26:21;;;;;;;;;;;;;;;;;;2085267;28;20023;-56
2021/09/17 06:27:22;;;;;;;;;;;;;;;;;;2089608;28;19968;-57
2021/09/17 06:28:23;;;;;;;;;;;;;;;;;;2089750;28;19980;-60
2021/09/17 06:29:24;;;;;;;;;;;;;;;;;;2088903;28;20270;-56
2021/09/17 06:30:24;;;;;;;;;;;;;;;;;;2082218;28;19943;-57
2021/09/17 06:31:25;;;;;;;;;;;;;;;;;;2081854;28;19925;-57
2021/09/17 06:32:27;;;;;;;;;;;;;;;;;;2086116;28;20290;-56
2021/09/17 06:33:28;;;;;;;;;;;;;;;;;;2081854;28;19921;-57
2021/09/17 06:34:29;;;;;;;;;;;;;;;;;;2081644;28;19944;-56
2021/09/17 06:35:30;;;;;;;;;;;;;;;;;;2086845;28;19935;-57
2021/09/17 06:36:31;;;;;;;;;;;;;;;;;;2089922;28;19921;-57
2021/09/17 06:37:31;;;;;;;;;;;;;;;;;;2089858;28;20018;-56
2021/09/17 06:38:32;;;;;;;;;;;;;;;;;;2087480;28;19921;-57
2021/09/17 06:39:33;;;;;;;;;;;;;;;;;;2089909;28;19947;-56
2021/09/17 06:40:34;;;;;;;;;;;;;;;;;;2089497;28;20362;-57
2021/09/17 06:41:35;;;;;;;;;;;;;;;;;;2087923;28;19964;-55
2021/09/17 06:42:36;;;;;;;;;;;;;;;;;;2089847;28;19921;-57
2021/09/17 06:43:37;;;;;;;;;;;;;;;;;;2089404;28;20409;-56
2021/09/17 06:44:38;;;;;;;;;;;;;;;;;;2088091;28;19920;-57
2021/09/17 06:45:39;;;;;;;;;;;;;;;;;;2089698;28;20401;-56
2021/09/17 06:46:39;;;;;;;;;;;;;;;;;;2089254;28;19970;-56
2021/09/17 06:47:40;;;;;;;;;;;;;;;;;;2088082;28;19925;-57
2021/09/17 06:48:41;;;;;;;;;;;;;;;;;;2089939;28;19925;-57
2021/09/17 06:49:42;;;;;;;;;;;;;;;;;;2089303;28;19921;-57
2021/09/17 06:50:43;;;;;;;;;;;;;;;;;;2083847;28;19929;-58
2021/09/17 06:51:44;;;;;;;;;;;;;;;;;;2081758;28;20287;-57
2021/09/17 06:52:47;;;;;;;;;;;;;;;;;;2083717;28;19921;-57
2021/09/17 06:53:48;;;;;;;;;;;;;;;;;;2088236;28;20405;-57
2021/09/17 06:54:49;;;;;;;;;;;;;;;;;;2089889;28;19920;-57
2021/09/17 06:55:50;;;;;;;;;;;;;;;;;;2088933;28;20332;-58